createdAt,value
2022-12-18T00:00:10.421Z,20.37
2022-12-18T00:02:45.777Z,20.27
2022-12-18T00:05:14.060Z,20.07
2022-12-18T00:07:42.296Z,19.43
2022-12-18T00:10:12.094Z,20.17
2022-12-18T00:12:46.487Z,20.40
2022-12-18T00:15:14.817Z,20.07
2022-12-18T00:17:43.071Z,19.98
2022-12-18T00:20:12.250Z,18.63
2022-12-18T00:22:40.444Z,20.67
2022-12-18T00:25:09.535Z,18.77
2022-12-18T00:27:39.254Z,19.57
2022-12-18T00:30:08.353Z,19.30
2022-12-18T00:32:38.101Z,18.83
2022-12-18T00:35:07.267Z,19.63
2022-12-18T00:37:36.217Z,21.70
2022-12-18T00:40:05.304Z,21.30
2022-12-18T00:42:51.143Z,21.43
2022-12-18T00:45:20.917Z,20.03
2022-12-18T00:47:49.229Z,21.00
2022-12-18T00:50:17.610Z,20.93
2022-12-18T00:52:45.898Z,20.80
2022-12-18T00:55:14.566Z,19.30
2022-12-18T00:57:43.319Z,21.73
2022-12-18T01:00:14.998Z,21.57
2022-12-18T01:02:45.191Z,19.13
2022-12-18T01:05:15.215Z,21.07
2022-12-18T01:07:44.396Z,19.60
2022-12-18T01:10:15.331Z,20.43
2022-12-18T01:12:48.551Z,18.20
2022-12-18T01:15:18.058Z,21.50
2022-12-18T01:17:47.768Z,19.73
2022-12-18T01:20:16.173Z,19.30
2022-12-18T01:22:44.529Z,18.70
2022-12-18T01:25:13.117Z,17.23
2022-12-18T01:27:41.385Z,18.93
2022-12-18T01:30:10.568Z,20.97
2022-12-18T01:32:38.778Z,19.53
2022-12-18T01:35:09.818Z,18.10
2022-12-18T01:37:38.220Z,17.80
2022-12-18T01:40:07.605Z,19.73
2022-12-18T01:42:35.970Z,19.17
2022-12-18T01:45:24.327Z,21.77
2022-12-18T01:47:55.057Z,18.80
2022-12-18T01:50:26.988Z,20.90
2022-12-18T01:52:57.831Z,17.83
2022-12-18T01:55:28.045Z,19.83
2022-12-18T01:57:59.835Z,19.60
2022-12-18T02:00:29.257Z,20.03
2022-12-18T02:02:57.802Z,18.07
2022-12-18T02:05:36.162Z,21.43
2022-12-18T02:08:11.466Z,17.33
2022-12-18T02:10:49.129Z,19.93
2022-12-18T02:13:22.485Z,19.77
2022-12-18T02:15:57.390Z,18.07
2022-12-18T02:18:47.681Z,17.90
2022-12-18T02:21:24.372Z,17.23
2022-12-18T02:23:57.631Z,20.33
2022-12-18T02:26:50.009Z,19.20
2022-12-18T02:29:22.999Z,18.97
2022-12-18T02:31:54.891Z,19.43
2022-12-18T02:34:26.312Z,19.37
2022-12-18T02:36:56.950Z,18.10
2022-12-18T02:39:26.313Z,19.83
2022-12-18T02:42:09.043Z,19.10
2022-12-18T02:44:42.351Z,18.83
2022-12-18T02:47:12.655Z,18.33
2022-12-18T02:49:50.435Z,19.03
2022-12-18T02:52:25.184Z,18.40
2022-12-18T02:55:02.449Z,18.10
2022-12-18T02:57:37.727Z,17.97
2022-12-18T03:00:09.498Z,16.30
2022-12-18T03:02:42.861Z,16.30
2022-12-18T03:05:15.950Z,16.57
2022-12-18T03:07:50.642Z,17.07
2022-12-18T03:10:24.108Z,16.57
2022-12-18T03:12:56.808Z,15.93
2022-12-18T03:15:27.413Z,15.73
2022-12-18T03:18:05.107Z,16.17
2022-12-18T03:20:34.599Z,15.13
2022-12-18T03:23:06.698Z,16.07
2022-12-18T03:25:35.671Z,15.60
2022-12-18T03:28:06.112Z,16.23
2022-12-18T03:30:36.170Z,16.00
2022-12-18T03:33:08.139Z,15.80
2022-12-18T03:35:39.735Z,15.60
2022-12-18T03:38:08.610Z,15.03
2022-12-18T03:40:47.537Z,15.77
2022-12-18T03:43:22.414Z,16.67
2022-12-18T03:45:54.433Z,15.90
2022-12-18T03:48:29.116Z,14.80
2022-12-18T03:51:00.272Z,16.93
2022-12-18T03:53:35.066Z,13.77
2022-12-18T03:56:05.075Z,13.40
2022-12-18T03:58:40.440Z,15.60
2022-12-18T04:01:33.972Z,14.80
2022-12-18T04:04:03.511Z,14.50
2022-12-18T04:06:36.265Z,13.63
2022-12-18T04:09:05.743Z,14.70
2022-12-18T04:11:37.623Z,15.00
2022-12-18T04:14:11.850Z,15.00
2022-12-18T04:16:42.885Z,14.27
2022-12-18T04:19:14.101Z,12.93
2022-12-18T04:21:44.915Z,14.80
2022-12-18T04:24:15.517Z,15.03
2022-12-18T04:26:52.883Z,13.93
2022-12-18T04:29:28.085Z,13.33
2022-12-18T04:31:56.705Z,13.03
2022-12-18T04:34:26.911Z,13.53
2022-12-18T04:36:56.504Z,12.83
2022-12-18T04:39:25.609Z,14.20
2022-12-18T04:41:56.872Z,14.80
2022-12-18T04:44:27.290Z,14.13
2022-12-18T04:46:55.593Z,14.77
2022-12-18T04:49:25.408Z,13.67
2022-12-18T04:51:54.004Z,12.90
2022-12-18T04:54:22.552Z,15.17
2022-12-18T04:56:50.934Z,14.17
2022-12-18T04:59:19.121Z,13.53
2022-12-18T05:01:48.831Z,12.97
2022-12-18T05:04:17.261Z,14.60
2022-12-18T05:06:46.318Z,12.13
2022-12-18T05:09:14.589Z,13.73
2022-12-18T05:11:42.828Z,12.90
2022-12-18T05:14:11.038Z,13.53
2022-12-18T05:16:39.296Z,12.20
2022-12-18T05:19:09.075Z,12.20
2022-12-18T05:21:37.347Z,12.77
2022-12-18T05:24:06.311Z,13.33
2022-12-18T05:26:34.518Z,12.40
2022-12-18T05:29:02.747Z,13.57
2022-12-18T05:31:35.955Z,12.10
2022-12-18T05:34:09.535Z,12.53
2022-12-18T05:36:39.036Z,11.97
2022-12-18T05:39:07.616Z,12.97
2022-12-18T05:41:35.872Z,11.60
2022-12-18T05:44:04.261Z,13.03
2022-12-18T05:46:34.210Z,12.00
2022-12-18T05:49:03.021Z,13.13
2022-12-18T05:51:32.664Z,12.13
2022-12-18T05:54:00.924Z,11.67
2022-12-18T05:56:29.135Z,13.50
2022-12-18T05:58:57.559Z,11.93
2022-12-18T06:01:27.804Z,10.87
2022-12-18T06:03:56.882Z,11.87
2022-12-18T06:06:27.259Z,12.10
2022-12-18T06:08:57.602Z,12.37
2022-12-18T06:11:27.802Z,10.23
2022-12-18T06:13:59.024Z,12.47
2022-12-18T06:16:28.076Z,11.90
2022-12-18T06:18:58.274Z,14.13
2022-12-18T06:21:26.632Z,13.23
2022-12-18T06:23:56.364Z,13.18
2022-12-18T06:26:27.996Z,11.37
2022-12-18T06:28:57.201Z,11.10
2022-12-18T06:31:26.241Z,10.40
2022-12-18T06:33:54.678Z,12.50
2022-12-18T06:36:23.161Z,10.57
2022-12-18T06:38:51.764Z,11.70
2022-12-18T06:41:22.670Z,12.40
2022-12-18T06:43:52.857Z,11.10
2022-12-18T06:46:24.056Z,12.10
2022-12-18T06:48:52.824Z,10.27
2022-12-18T06:51:22.427Z,11.67
2022-12-18T06:53:51.093Z,12.10
2022-12-18T06:56:21.180Z,11.33
2022-12-18T06:58:49.427Z,12.00
2022-12-18T07:01:17.787Z,11.33
2022-12-18T07:03:46.303Z,15.35
2022-12-18T07:06:17.049Z,12.27
2022-12-18T07:08:45.433Z,10.97
2022-12-18T07:11:13.857Z,11.40
2022-12-18T07:13:43.916Z,12.23
2022-12-18T07:16:19.624Z,12.37
2022-12-18T07:18:52.506Z,12.47
2022-12-18T07:21:21.842Z,11.73
2022-12-18T07:23:50.122Z,12.33
2022-12-18T07:26:19.819Z,10.93
2022-12-18T07:28:49.718Z,12.17
2022-12-18T07:31:20.004Z,12.20
2022-12-18T07:33:50.655Z,13.38
2022-12-18T07:36:19.064Z,11.53
2022-12-18T07:38:49.876Z,10.90
2022-12-18T07:41:19.604Z,11.30
2022-12-18T07:43:49.763Z,13.10
2022-12-18T07:46:18.832Z,13.13
2022-12-18T07:48:49.292Z,12.53
2022-12-18T07:51:18.401Z,11.37
2022-12-18T07:53:46.840Z,12.32
2022-12-18T07:56:28.669Z,12.73
2022-12-18T07:58:58.869Z,12.27
2022-12-18T08:01:27.404Z,12.00
2022-12-18T08:03:55.905Z,11.20
2022-12-18T08:06:24.889Z,12.83
2022-12-18T08:08:54.583Z,11.93
2022-12-18T08:11:23.799Z,12.37
2022-12-18T08:13:52.093Z,13.20
2022-12-18T08:16:22.025Z,13.53
2022-12-18T08:18:50.950Z,15.07
2022-12-18T08:21:23.834Z,13.97
2022-12-18T08:23:52.820Z,14.07
2022-12-18T08:26:21.983Z,12.57
2022-12-18T08:28:50.839Z,11.33
2022-12-18T08:31:21.085Z,12.67
2022-12-18T08:33:51.519Z,12.73
2022-12-18T08:36:20.521Z,12.50
2022-12-18T08:38:49.061Z,12.23
2022-12-18T08:41:18.586Z,12.20
2022-12-18T08:44:05.167Z,12.33
2022-12-18T08:46:39.899Z,12.37
2022-12-18T08:49:09.134Z,13.20
2022-12-18T08:51:37.602Z,12.50
2022-12-18T08:54:06.831Z,13.03
2022-12-18T08:56:35.298Z,14.10
2022-12-18T08:59:03.992Z,11.97
2022-12-18T09:01:32.641Z,11.77
2022-12-18T09:04:03.979Z,13.50
2022-12-18T09:06:33.339Z,12.53
2022-12-18T09:09:01.626Z,12.40
2022-12-18T09:11:31.212Z,13.43
2022-12-18T09:13:59.996Z,13.07
2022-12-18T09:16:32.295Z,14.60
2022-12-18T09:19:05.251Z,14.27
2022-12-18T09:21:37.439Z,13.80
2022-12-18T09:24:08.708Z,14.60
2022-12-18T09:26:37.316Z,14.13
2022-12-18T09:29:05.810Z,14.17
2022-12-18T09:31:34.063Z,14.60
2022-12-18T09:34:03.729Z,13.20
2022-12-18T09:36:32.027Z,14.00
2022-12-18T09:39:04.941Z,15.20
2022-12-18T09:41:45.337Z,15.67
2022-12-18T09:44:19.495Z,14.13
2022-12-18T09:46:51.405Z,13.80
2022-12-18T09:49:23.680Z,13.87
2022-12-18T09:51:54.886Z,14.63
2022-12-18T09:54:25.144Z,15.97
2022-12-18T09:56:54.606Z,14.73
2022-12-18T09:59:27.396Z,15.57
2022-12-18T10:01:55.797Z,13.33
2022-12-18T10:04:44.288Z,15.00
2022-12-18T10:07:40.586Z,13.07
2022-12-18T10:10:21.406Z,14.27
2022-12-18T10:12:58.256Z,14.90
2022-12-18T10:15:34.258Z,12.87
2022-12-18T10:18:08.689Z,15.07
2022-12-18T10:20:43.764Z,14.30
2022-12-18T10:23:17.527Z,15.40
2022-12-18T10:25:53.009Z,16.63
2022-12-18T10:28:22.262Z,15.93
2022-12-18T10:30:50.505Z,16.30
2022-12-18T10:33:20.505Z,13.97
2022-12-18T10:35:51.301Z,15.73
2022-12-18T10:38:25.415Z,16.30
2022-12-18T10:40:55.849Z,16.63
2022-12-18T10:43:26.419Z,15.90
2022-12-18T10:46:10.595Z,14.07
2022-12-18T10:48:43.075Z,15.83
2022-12-18T10:51:22.280Z,15.47
2022-12-18T10:53:57.187Z,16.27
2022-12-18T10:56:26.968Z,16.20
2022-12-18T10:59:00.679Z,17.70
2022-12-18T11:01:29.958Z,16.80
2022-12-18T11:04:03.671Z,17.10
2022-12-18T11:06:35.885Z,17.37
2022-12-18T11:09:13.320Z,15.97
2022-12-18T11:11:42.758Z,17.40
2022-12-18T11:14:17.567Z,16.43
2022-12-18T11:17:03.038Z,15.60
2022-12-18T11:19:37.715Z,17.47
2022-12-18T11:22:27.325Z,15.27
2022-12-18T11:25:30.238Z,17.47
2022-12-18T11:27:51.284Z,15.33
2022-12-18T11:30:24.664Z,15.43
2022-12-18T11:32:54.271Z,17.20
2022-12-18T11:35:25.629Z,16.17
2022-12-18T11:37:58.784Z,16.13
2022-12-18T11:40:36.505Z,17.50
2022-12-18T11:43:12.081Z,16.27
2022-12-18T11:45:45.357Z,17.33
2022-12-18T11:48:19.187Z,15.37
2022-12-18T11:50:52.027Z,16.93
2022-12-18T11:53:22.082Z,17.80
2022-12-18T11:56:05.412Z,16.70
2022-12-18T11:58:48.621Z,15.83
2022-12-18T12:01:35.550Z,16.10
2022-12-18T12:04:50.474Z,16.60
2022-12-18T12:07:27.093Z,15.63
2022-12-18T12:10:02.942Z,16.37
2022-12-18T12:12:49.082Z,15.33
2022-12-18T12:15:26.744Z,15.50
2022-12-18T12:17:58.218Z,16.57
2022-12-18T12:20:36.272Z,14.47
2022-12-18T12:23:11.002Z,15.57
2022-12-18T12:25:45.625Z,15.07
2022-12-18T12:28:25.098Z,15.73
2022-12-18T12:31:00.625Z,16.80
2022-12-18T12:33:36.606Z,16.87
2022-12-18T12:36:09.845Z,14.40
2022-12-18T12:38:48.345Z,16.97
2022-12-18T12:41:40.974Z,16.63
2022-12-18T12:44:11.510Z,15.97
2022-12-18T12:46:42.031Z,16.07
2022-12-18T12:49:14.597Z,16.43
2022-12-18T12:51:45.703Z,16.40
2022-12-18T12:54:18.510Z,17.00
2022-12-18T12:56:52.329Z,16.43
2022-12-18T12:59:27.202Z,16.40
2022-12-18T13:01:59.620Z,16.17
2022-12-18T13:04:34.979Z,15.90
2022-12-18T13:07:08.753Z,15.93
2022-12-18T13:10:20.884Z,15.23
2022-12-18T13:12:58.147Z,16.37
2022-12-18T13:15:31.531Z,16.67
2022-12-18T13:18:26.272Z,15.90
2022-12-18T13:21:05.500Z,16.57
2022-12-18T13:23:36.089Z,16.33
2022-12-18T13:26:33.054Z,16.37
2022-12-18T13:29:07.076Z,16.23
2022-12-18T13:32:03.012Z,17.70
2022-12-18T13:34:32.775Z,14.93
2022-12-18T13:37:35.043Z,15.17
2022-12-18T13:40:03.399Z,15.80
2022-12-18T13:43:00.491Z,16.83
2022-12-18T13:45:47.864Z,17.03
2022-12-18T13:48:21.488Z,17.37
2022-12-18T13:50:57.671Z,15.70
2022-12-18T13:53:29.755Z,17.53
2022-12-18T13:55:58.897Z,17.07
2022-12-18T13:58:27.214Z,17.07
2022-12-18T14:00:57.729Z,16.70
2022-12-18T14:03:28.314Z,17.77
2022-12-18T14:06:05.759Z,16.03
2022-12-18T14:08:41.526Z,18.07
2022-12-18T14:11:21.627Z,17.83
2022-12-18T14:13:50.497Z,16.97
2022-12-18T14:16:20.949Z,18.33
2022-12-18T14:18:55.460Z,18.50
2022-12-18T14:21:28.001Z,16.87
2022-12-18T14:24:07.052Z,18.07
2022-12-18T14:26:35.508Z,17.47
2022-12-18T14:29:21.590Z,17.80
2022-12-18T14:32:15.022Z,18.93
2022-12-18T14:34:46.111Z,17.37
2022-12-18T14:37:15.530Z,17.57
2022-12-18T14:39:55.154Z,18.83
2022-12-18T14:42:23.633Z,17.77
2022-12-18T14:45:13.558Z,17.53
2022-12-18T14:47:45.547Z,17.97
2022-12-18T14:50:16.142Z,19.17
2022-12-18T14:52:44.391Z,17.47
2022-12-18T14:55:17.994Z,17.63
2022-12-18T14:57:46.601Z,17.93
2022-12-18T15:00:20.031Z,17.77
2022-12-18T15:02:52.515Z,20.27
2022-12-18T15:05:22.867Z,20.33
2022-12-18T15:07:52.768Z,19.30
2022-12-18T15:10:23.137Z,20.17
2022-12-18T15:12:52.633Z,19.20
2022-12-18T15:15:47.073Z,19.90
2022-12-18T15:18:18.925Z,20.33
2022-12-18T15:20:49.306Z,19.67
2022-12-18T15:23:20.056Z,18.37
2022-12-18T15:25:49.354Z,19.93
2022-12-18T15:28:25.062Z,20.77
2022-12-18T15:31:04.538Z,22.77
2022-12-18T15:33:36.680Z,23.80
2022-12-18T15:36:06.876Z,24.13
2022-12-18T15:38:35.197Z,22.03
2022-12-18T15:41:04.180Z,21.90
2022-12-18T15:43:34.701Z,20.70
2022-12-18T15:46:04.215Z,19.10
2022-12-18T15:48:34.979Z,19.80
2022-12-18T15:51:03.669Z,18.90
2022-12-18T15:53:33.246Z,19.13
2022-12-18T15:56:19.136Z,16.97
2022-12-18T15:58:47.402Z,19.40
2022-12-18T16:01:15.974Z,19.03
2022-12-18T16:03:46.053Z,16.67
2022-12-18T16:06:14.551Z,18.00
2022-12-18T16:08:43.117Z,19.00
2022-12-18T16:11:38.637Z,18.40
2022-12-18T16:14:18.972Z,16.50
2022-12-18T16:16:47.801Z,16.43
2022-12-18T16:19:17.883Z,18.77
2022-12-18T16:21:46.491Z,18.90
2022-12-18T16:24:18.010Z,17.73
2022-12-18T16:26:46.409Z,18.60
2022-12-18T16:29:14.764Z,17.93
2022-12-18T16:31:43.128Z,17.17
2022-12-18T16:34:17.862Z,19.13
2022-12-18T16:36:46.160Z,19.73
2022-12-18T16:39:14.422Z,19.10
2022-12-18T16:41:42.918Z,17.00
2022-12-18T16:44:11.432Z,18.60
2022-12-18T16:46:39.964Z,15.87
2022-12-18T16:49:08.332Z,16.30
2022-12-18T16:51:38.072Z,18.43
2022-12-18T16:54:10.325Z,18.07
2022-12-18T16:56:42.769Z,22.87
2022-12-18T16:59:13.363Z,19.13
2022-12-18T17:01:41.943Z,17.83
2022-12-18T17:04:10.569Z,19.97
2022-12-18T17:06:42.912Z,16.80
2022-12-18T17:09:14.448Z,18.37
2022-12-18T17:11:42.794Z,17.37
2022-12-18T17:14:14.153Z,17.80
2022-12-18T17:16:42.703Z,17.33
2022-12-18T17:19:16.628Z,20.67
2022-12-18T17:21:49.841Z,17.00
2022-12-18T17:24:18.430Z,17.23
2022-12-18T17:26:48.470Z,17.10
2022-12-18T17:29:19.689Z,16.93
2022-12-18T17:31:49.099Z,17.40
2022-12-18T17:34:17.920Z,18.87
2022-12-18T17:36:48.651Z,17.93
2022-12-18T17:39:20.754Z,20.27
2022-12-18T17:41:50.030Z,21.97
2022-12-18T17:44:18.560Z,19.77
2022-12-18T17:46:47.389Z,19.53
2022-12-18T17:49:15.745Z,21.57
2022-12-18T17:51:44.020Z,20.00
2022-12-18T17:54:13.838Z,20.77
2022-12-18T17:56:42.166Z,17.90
2022-12-18T17:59:11.232Z,21.77
2022-12-18T18:01:44.326Z,20.17
2022-12-18T18:04:14.246Z,20.53
2022-12-18T18:06:42.781Z,21.43
2022-12-18T18:09:16.478Z,21.07
2022-12-18T18:12:04.252Z,21.57
2022-12-18T18:14:33.105Z,21.23
2022-12-18T18:17:04.846Z,21.40
2022-12-18T18:19:34.155Z,20.53
2022-12-18T18:22:03.171Z,22.73
2022-12-18T18:24:32.498Z,23.30
2022-12-18T18:27:02.109Z,23.23
2022-12-18T18:29:31.390Z,23.07
2022-12-18T18:32:00.256Z,21.30
2022-12-18T18:34:30.265Z,22.67
2022-12-18T18:37:02.120Z,21.93
2022-12-18T18:39:30.948Z,25.37
2022-12-18T18:41:59.429Z,22.00
2022-12-18T18:44:29.211Z,24.90
2022-12-18T18:46:59.240Z,20.83
2022-12-18T18:49:28.630Z,22.57
2022-12-18T18:51:57.886Z,21.57
2022-12-18T18:54:26.440Z,22.70
2022-12-18T18:59:45.818Z,19.93
2022-12-18T19:02:15.079Z,21.00
2022-12-18T19:04:46.153Z,20.37
2022-12-18T19:07:18.515Z,19.70
2022-12-18T19:10:04.942Z,20.43
2022-12-18T19:12:51.982Z,21.03
2022-12-18T19:15:21.875Z,21.30
2022-12-18T19:17:50.541Z,19.27
2022-12-18T19:20:19.661Z,20.77
2022-12-18T19:22:55.148Z,20.37
2022-12-18T19:25:37.557Z,21.80
2022-12-18T19:28:12.048Z,20.93
2022-12-18T19:30:59.425Z,22.03
2022-12-18T19:33:45.049Z,20.83
2022-12-18T19:36:16.734Z,20.67
2022-12-18T19:38:45.664Z,20.03
2022-12-18T19:41:15.309Z,19.83
2022-12-18T19:43:44.645Z,19.67
2022-12-18T19:46:16.074Z,21.93
2022-12-18T19:48:45.401Z,21.33
2022-12-18T19:51:16.304Z,19.97
2022-12-18T19:53:44.959Z,19.20
2022-12-18T19:56:15.194Z,18.43
2022-12-18T19:58:44.274Z,20.07
2022-12-18T20:01:16.477Z,19.47
2022-12-18T20:03:50.038Z,19.33
2022-12-18T20:06:25.261Z,18.83
2022-12-18T20:08:54.641Z,17.97
2022-12-18T20:11:29.516Z,17.03
2022-12-18T20:13:57.981Z,19.37
2022-12-18T20:16:27.686Z,19.63
2022-12-18T20:18:55.979Z,17.73
2022-12-18T20:21:25.324Z,18.37
2022-12-18T20:23:54.876Z,16.70
2022-12-18T20:26:23.446Z,17.77
2022-12-18T20:28:51.764Z,17.57
2022-12-18T20:31:20.079Z,16.53
2022-12-18T20:33:50.074Z,17.17
2022-12-18T20:36:26.954Z,17.93
2022-12-18T20:38:59.141Z,17.37
2022-12-18T20:41:38.126Z,18.07
2022-12-18T20:44:16.706Z,18.37
2022-12-18T20:46:53.203Z,18.40
2022-12-18T20:49:23.357Z,16.47
2022-12-18T20:51:52.592Z,16.43
2022-12-18T20:54:21.233Z,17.00
2022-12-18T20:56:49.514Z,17.03
2022-12-18T20:59:19.410Z,17.97
2022-12-18T21:01:48.942Z,15.97
2022-12-18T21:04:18.827Z,17.10
2022-12-18T21:06:52.331Z,17.33
2022-12-18T21:09:23.715Z,17.63
2022-12-18T21:12:12.011Z,16.90
2022-12-18T21:14:42.766Z,17.20
2022-12-18T21:17:11.155Z,17.20
2022-12-18T21:19:39.595Z,16.60
2022-12-18T21:22:09.601Z,16.53
2022-12-18T21:24:38.073Z,18.43
2022-12-18T21:27:06.268Z,17.63
2022-12-18T21:29:34.996Z,16.77
2022-12-18T21:32:03.932Z,17.63
2022-12-18T21:34:32.884Z,17.37
2022-12-18T21:37:01.742Z,17.00
2022-12-18T21:39:32.077Z,17.97
2022-12-18T21:42:17.963Z,17.03
2022-12-18T21:44:49.208Z,16.87
2022-12-18T21:47:21.677Z,16.87
2022-12-18T21:49:50.981Z,17.73
2022-12-18T21:52:19.210Z,15.27
2022-12-18T21:54:48.836Z,17.67
2022-12-18T21:57:18.698Z,17.37
2022-12-18T21:59:47.062Z,17.60
2022-12-18T22:02:17.188Z,16.30
2022-12-18T22:04:46.148Z,19.23
2022-12-18T22:07:15.575Z,17.77
2022-12-18T22:09:43.928Z,18.10
2022-12-18T22:12:34.668Z,18.20
2022-12-18T22:15:04.363Z,16.87
2022-12-18T22:17:32.865Z,16.50
2022-12-18T22:20:01.188Z,17.53
2022-12-18T22:22:29.438Z,18.87
2022-12-18T22:24:57.666Z,18.30
2022-12-18T22:27:27.197Z,17.23
2022-12-18T22:30:06.342Z,17.33
2022-12-18T22:32:35.596Z,18.80
2022-12-18T22:35:12.780Z,17.50
2022-12-18T22:37:43.721Z,16.10
2022-12-18T22:40:18.120Z,19.17
2022-12-18T22:42:51.870Z,17.93
2022-12-18T22:45:23.801Z,17.40
2022-12-18T22:47:52.615Z,16.50
2022-12-18T22:50:21.017Z,16.23
2022-12-18T22:52:49.338Z,16.80
2022-12-18T22:55:17.629Z,16.17
2022-12-18T22:57:48.960Z,15.70
2022-12-18T23:00:24.281Z,15.13
2022-12-18T23:02:59.710Z,16.50
2022-12-18T23:05:30.074Z,15.20
2022-12-18T23:07:58.845Z,16.77
2022-12-18T23:10:27.686Z,16.17
2022-12-18T23:12:56.039Z,14.70
2022-12-18T23:15:28.237Z,16.27
2022-12-18T23:17:58.793Z,17.30
2022-12-18T23:20:27.930Z,15.93
2022-12-18T23:22:56.243Z,16.37
2022-12-18T23:25:24.659Z,17.83
2022-12-18T23:27:53.313Z,17.17
2022-12-18T23:30:21.596Z,16.90
2022-12-18T23:32:51.365Z,16.93
2022-12-18T23:35:19.871Z,16.40
2022-12-18T23:38:04.198Z,15.83
2022-12-18T23:40:32.485Z,16.43
2022-12-18T23:43:01.194Z,16.33
2022-12-18T23:45:29.562Z,15.13
2022-12-18T23:47:59.291Z,16.93
2022-12-18T23:50:30.000Z,16.13
2022-12-18T23:53:04.952Z,16.13
2022-12-18T23:55:35.507Z,16.97
2022-12-18T23:58:03.751Z,15.53
